sensor_id;sensor_type;location;lat;lon;timestamp;temperature;humidity
37782;DHT22;23621;50.878;4.584;2023-11-22T00:00:27;14.90;69.20
37782;DHT22;23621;50.878;4.584;2023-11-22T00:03:15;14.90;69.10
37782;DHT22;23621;50.878;4.584;2023-11-22T00:06:02;14.90;69.10
37782;DHT22;23621;50.878;4.584;2023-11-22T00:08:49;14.90;69.20
37782;DHT22;23621;50.878;4.584;2023-11-22T00:11:37;14.90;69.20
37782;DHT22;23621;50.878;4.584;2023-11-22T00:14:24;14.90;69.10
37782;DHT22;23621;50.878;4.584;2023-11-22T00:17:11;14.90;69.10
37782;DHT22;23621;50.878;4.584;2023-11-22T00:19:59;15.00;69.30
37782;DHT22;23621;50.878;4.584;2023-11-22T00:22:53;15.00;69.30
37782;DHT22;23621;50.878;4.584;2023-11-22T00:25:40;15.00;69.30
37782;DHT22;23621;50.878;4.584;2023-11-22T00:28:27;15.00;69.30
37782;DHT22;23621;50.878;4.584;2023-11-22T00:31:15;15.00;69.30
37782;DHT22;23621;50.878;4.584;2023-11-22T00:34:02;15.00;69.20
37782;DHT22;23621;50.878;4.584;2023-11-22T00:36:50;15.00;69.20
37782;DHT22;23621;50.878;4.584;2023-11-22T00:39:38;15.00;69.40
37782;DHT22;23621;50.878;4.584;2023-11-22T00:42:25;15.00;69.30
37782;DHT22;23621;50.878;4.584;2023-11-22T00:45:12;15.00;69.40
37782;DHT22;23621;50.878;4.584;2023-11-22T00:48:00;15.00;69.30
37782;DHT22;23621;50.878;4.584;2023-11-22T00:50:48;15.00;69.40
37782;DHT22;23621;50.878;4.584;2023-11-22T00:53:35;15.00;69.50
37782;DHT22;23621;50.878;4.584;2023-11-22T00:56:26;15.00;69.50
37782;DHT22;23621;50.878;4.584;2023-11-22T00:59:13;14.90;69.40
37782;DHT22;23621;50.878;4.584;2023-11-22T01:02:01;14.90;69.50
37782;DHT22;23621;50.878;4.584;2023-11-22T01:04:49;14.90;69.50
37782;DHT22;23621;50.878;4.584;2023-11-22T01:07:37;14.90;69.50
37782;DHT22;23621;50.878;4.584;2023-11-22T01:10:25;14.90;69.50
37782;DHT22;23621;50.878;4.584;2023-11-22T01:13:12;14.90;69.50
37782;DHT22;23621;50.878;4.584;2023-11-22T01:16:01;14.90;69.60
37782;DHT22;23621;50.878;4.584;2023-11-22T01:18:49;14.90;69.50
37782;DHT22;23621;50.878;4.584;2023-11-22T01:21:36;14.90;69.50
37782;DHT22;23621;50.878;4.584;2023-11-22T01:24:23;14.90;69.50
37782;DHT22;23621;50.878;4.584;2023-11-22T01:27:12;14.80;69.40
37782;DHT22;23621;50.878;4.584;2023-11-22T01:29:59;14.80;69.50
37782;DHT22;23621;50.878;4.584;2023-11-22T01:32:46;14.80;69.50
37782;DHT22;23621;50.878;4.584;2023-11-22T01:35:34;14.90;69.60
37782;DHT22;23621;50.878;4.584;2023-11-22T01:38:21;14.80;69.40
37782;DHT22;23621;50.878;4.584;2023-11-22T01:41:10;14.80;69.30
37782;DHT22;23621;50.878;4.584;2023-11-22T01:44:00;14.80;69.40
37782;DHT22;23621;50.878;4.584;2023-11-22T01:46:47;14.70;69.40
37782;DHT22;23621;50.878;4.584;2023-11-22T01:49:35;14.60;69.30
37782;DHT22;23621;50.878;4.584;2023-11-22T01:52:22;14.60;69.40
37782;DHT22;23621;50.878;4.584;2023-11-22T01:55:10;14.60;69.40
37782;DHT22;23621;50.878;4.584;2023-11-22T01:57:58;14.60;69.60
37782;DHT22;23621;50.878;4.584;2023-11-22T02:00:49;14.50;69.50
37782;DHT22;23621;50.878;4.584;2023-11-22T02:03:37;14.50;69.30
37782;DHT22;23621;50.878;4.584;2023-11-22T02:06:25;14.50;69.50
37782;DHT22;23621;50.878;4.584;2023-11-22T02:09:13;14.50;69.60
37782;DHT22;23621;50.878;4.584;2023-11-22T02:12:05;14.50;69.70
37782;DHT22;23621;50.878;4.584;2023-11-22T02:14:52;14.50;69.70
37782;DHT22;23621;50.878;4.584;2023-11-22T02:17:40;14.50;69.70
37782;DHT22;23621;50.878;4.584;2023-11-22T02:20:27;14.50;69.60
37782;DHT22;23621;50.878;4.584;2023-11-22T02:23:15;14.50;69.60
37782;DHT22;23621;50.878;4.584;2023-11-22T02:26:02;14.60;69.60
37782;DHT22;23621;50.878;4.584;2023-11-22T02:28:50;14.50;69.60
37782;DHT22;23621;50.878;4.584;2023-11-22T02:31:40;14.50;69.60
37782;DHT22;23621;50.878;4.584;2023-11-22T02:34:28;14.50;69.60
37782;DHT22;23621;50.878;4.584;2023-11-22T02:37:15;14.50;69.50
37782;DHT22;23621;50.878;4.584;2023-11-22T02:40:16;14.50;69.50
37782;DHT22;23621;50.878;4.584;2023-11-22T02:43:06;14.60;69.60
37782;DHT22;23621;50.878;4.584;2023-11-22T02:45:54;14.50;69.60
37782;DHT22;23621;50.878;4.584;2023-11-22T02:48:42;14.50;69.50
37782;DHT22;23621;50.878;4.584;2023-11-22T02:51:29;14.50;69.50
37782;DHT22;23621;50.878;4.584;2023-11-22T02:54:17;14.50;69.50
37782;DHT22;23621;50.878;4.584;2023-11-22T02:57:05;14.50;69.30
37782;DHT22;23621;50.878;4.584;2023-11-22T02:59:52;14.50;69.20
37782;DHT22;23621;50.878;4.584;2023-11-22T03:02:41;14.50;69.20
37782;DHT22;23621;50.878;4.584;2023-11-22T03:05:32;14.40;69.10
37782;DHT22;23621;50.878;4.584;2023-11-22T03:08:20;14.40;69.10
37782;DHT22;23621;50.878;4.584;2023-11-22T03:11:08;14.40;69.10
37782;DHT22;23621;50.878;4.584;2023-11-22T03:13:55;14.40;69.10
37782;DHT22;23621;50.878;4.584;2023-11-22T03:16:42;14.40;69.10
37782;DHT22;23621;50.878;4.584;2023-11-22T03:19:30;14.40;69.10
37782;DHT22;23621;50.878;4.584;2023-11-22T03:22:21;14.40;69.10
37782;DHT22;23621;50.878;4.584;2023-11-22T03:25:08;14.40;69.10
37782;DHT22;23621;50.878;4.584;2023-11-22T03:27:57;14.40;69.00
37782;DHT22;23621;50.878;4.584;2023-11-22T03:30:44;14.30;68.90
37782;DHT22;23621;50.878;4.584;2023-11-22T03:33:32;14.40;69.00
37782;DHT22;23621;50.878;4.584;2023-11-22T03:36:20;14.30;68.90
37782;DHT22;23621;50.878;4.584;2023-11-22T03:39:07;14.30;68.90
37782;DHT22;23621;50.878;4.584;2023-11-22T03:41:57;14.30;68.90
37782;DHT22;23621;50.878;4.584;2023-11-22T03:44:44;14.30;68.80
37782;DHT22;23621;50.878;4.584;2023-11-22T03:47:32;14.20;68.50
37782;DHT22;23621;50.878;4.584;2023-11-22T03:50:20;14.20;68.60
37782;DHT22;23621;50.878;4.584;2023-11-22T03:53:08;14.10;68.50
37782;DHT22;23621;50.878;4.584;2023-11-22T03:55:56;14.10;68.40
37782;DHT22;23621;50.878;4.584;2023-11-22T03:58:43;14.00;68.40
37782;DHT22;23621;50.878;4.584;2023-11-22T04:01:31;14.00;68.30
37782;DHT22;23621;50.878;4.584;2023-11-22T04:04:19;13.90;68.90
37782;DHT22;23621;50.878;4.584;2023-11-22T04:07:08;13.90;68.20
37782;DHT22;23621;50.878;4.584;2023-11-22T04:09:55;13.80;68.00
37782;DHT22;23621;50.878;4.584;2023-11-22T04:12:42;13.70;67.80
37782;DHT22;23621;50.878;4.584;2023-11-22T04:15:30;13.70;67.70
37782;DHT22;23621;50.878;4.584;2023-11-22T04:18:18;13.70;67.40
37782;DHT22;23621;50.878;4.584;2023-11-22T04:21:06;13.60;67.30
37782;DHT22;23621;50.878;4.584;2023-11-22T04:23:53;13.60;67.30
37782;DHT22;23621;50.878;4.584;2023-11-22T04:26:40;13.60;67.50
37782;DHT22;23621;50.878;4.584;2023-11-22T04:29:28;13.60;67.60
37782;DHT22;23621;50.878;4.584;2023-11-22T04:32:15;13.60;67.70
37782;DHT22;23621;50.878;4.584;2023-11-22T04:35:03;13.60;67.70
37782;DHT22;23621;50.878;4.584;2023-11-22T04:37:51;13.60;67.70
37782;DHT22;23621;50.878;4.584;2023-11-22T04:40:38;13.60;67.80
37782;DHT22;23621;50.878;4.584;2023-11-22T04:43:25;13.60;67.90
37782;DHT22;23621;50.878;4.584;2023-11-22T04:46:13;13.60;68.00
37782;DHT22;23621;50.878;4.584;2023-11-22T04:49:01;13.60;68.10
37782;DHT22;23621;50.878;4.584;2023-11-22T04:51:48;13.60;68.10
37782;DHT22;23621;50.878;4.584;2023-11-22T04:54:36;13.60;68.30
37782;DHT22;23621;50.878;4.584;2023-11-22T04:57:24;13.60;68.30
37782;DHT22;23621;50.878;4.584;2023-11-22T05:00:12;13.60;68.30
37782;DHT22;23621;50.878;4.584;2023-11-22T05:02:59;13.60;68.30
37782;DHT22;23621;50.878;4.584;2023-11-22T05:05:46;13.60;68.30
37782;DHT22;23621;50.878;4.584;2023-11-22T05:08:34;13.60;68.40
37782;DHT22;23621;50.878;4.584;2023-11-22T05:11:22;13.60;68.40
37782;DHT22;23621;50.878;4.584;2023-11-22T05:14:09;13.60;68.40
37782;DHT22;23621;50.878;4.584;2023-11-22T05:16:57;13.60;68.40
37782;DHT22;23621;50.878;4.584;2023-11-22T05:19:44;13.60;68.40
37782;DHT22;23621;50.878;4.584;2023-11-22T05:22:31;13.60;68.50
37782;DHT22;23621;50.878;4.584;2023-11-22T05:25:19;13.60;68.50
37782;DHT22;23621;50.878;4.584;2023-11-22T05:28:06;13.60;68.70
37782;DHT22;23621;50.878;4.584;2023-11-22T05:30:54;13.60;68.80
37782;DHT22;23621;50.878;4.584;2023-11-22T05:33:41;13.50;68.70
37782;DHT22;23621;50.878;4.584;2023-11-22T05:36:29;13.60;68.80
37782;DHT22;23621;50.878;4.584;2023-11-22T05:39:17;13.60;68.80
37782;DHT22;23621;50.878;4.584;2023-11-22T05:42:05;13.60;68.80
37782;DHT22;23621;50.878;4.584;2023-11-22T05:44:52;13.60;68.80
37782;DHT22;23621;50.878;4.584;2023-11-22T05:47:40;13.60;68.70
37782;DHT22;23621;50.878;4.584;2023-11-22T05:50:27;13.60;68.60
37782;DHT22;23621;50.878;4.584;2023-11-22T05:53:15;13.60;68.70
37782;DHT22;23621;50.878;4.584;2023-11-22T05:56:06;13.60;68.80
37782;DHT22;23621;50.878;4.584;2023-11-22T05:58:57;13.60;68.80
37782;DHT22;23621;50.878;4.584;2023-11-22T06:01:44;13.60;68.70
37782;DHT22;23621;50.878;4.584;2023-11-22T06:04:31;13.60;68.70
37782;DHT22;23621;50.878;4.584;2023-11-22T06:07:19;13.50;68.60
37782;DHT22;23621;50.878;4.584;2023-11-22T06:10:07;13.50;68.70
37782;DHT22;23621;50.878;4.584;2023-11-22T06:12:54;13.50;68.70
37782;DHT22;23621;50.878;4.584;2023-11-22T06:15:41;13.50;68.80
37782;DHT22;23621;50.878;4.584;2023-11-22T06:18:29;13.50;69.00
37782;DHT22;23621;50.878;4.584;2023-11-22T06:21:17;13.50;69.00
37782;DHT22;23621;50.878;4.584;2023-11-22T06:24:06;13.50;68.90
37782;DHT22;23621;50.878;4.584;2023-11-22T06:26:55;13.50;69.00
37782;DHT22;23621;50.878;4.584;2023-11-22T06:29:43;13.50;69.00
37782;DHT22;23621;50.878;4.584;2023-11-22T06:32:34;13.50;68.90
37782;DHT22;23621;50.878;4.584;2023-11-22T06:35:22;13.50;68.90
37782;DHT22;23621;50.878;4.584;2023-11-22T06:38:10;13.50;68.90
37782;DHT22;23621;50.878;4.584;2023-11-22T06:40:57;13.50;68.90
37782;DHT22;23621;50.878;4.584;2023-11-22T06:43:45;13.50;68.90
37782;DHT22;23621;50.878;4.584;2023-11-22T06:46:32;13.50;68.70
37782;DHT22;23621;50.878;4.584;2023-11-22T06:49:19;13.50;68.60
37782;DHT22;23621;50.878;4.584;2023-11-22T06:52:07;13.50;68.60
37782;DHT22;23621;50.878;4.584;2023-11-22T06:54:56;13.50;68.50
37782;DHT22;23621;50.878;4.584;2023-11-22T06:57:43;13.50;68.50
37782;DHT22;23621;50.878;4.584;2023-11-22T07:00:30;13.50;68.40
37782;DHT22;23621;50.878;4.584;2023-11-22T07:03:18;13.50;68.40
37782;DHT22;23621;50.878;4.584;2023-11-22T07:06:05;13.50;68.40
37782;DHT22;23621;50.878;4.584;2023-11-22T07:08:53;13.50;68.40
37782;DHT22;23621;50.878;4.584;2023-11-22T07:11:40;13.50;68.50
37782;DHT22;23621;50.878;4.584;2023-11-22T07:14:28;13.50;68.50
37782;DHT22;23621;50.878;4.584;2023-11-22T07:17:16;13.50;68.60
37782;DHT22;23621;50.878;4.584;2023-11-22T07:20:09;13.50;68.60
37782;DHT22;23621;50.878;4.584;2023-11-22T07:23:03;13.50;68.60
37782;DHT22;23621;50.878;4.584;2023-11-22T07:25:50;13.50;68.70
37782;DHT22;23621;50.878;4.584;2023-11-22T07:28:39;13.50;68.70
37782;DHT22;23621;50.878;4.584;2023-11-22T07:31:26;13.50;68.90
37782;DHT22;23621;50.878;4.584;2023-11-22T07:34:14;13.50;69.00
37782;DHT22;23621;50.878;4.584;2023-11-22T07:37:01;13.50;68.90
37782;DHT22;23621;50.878;4.584;2023-11-22T07:39:49;13.50;68.90
37782;DHT22;23621;50.878;4.584;2023-11-22T07:42:37;13.50;68.90
37782;DHT22;23621;50.878;4.584;2023-11-22T07:45:24;13.60;68.90
37782;DHT22;23621;50.878;4.584;2023-11-22T07:48:11;13.50;68.80
37782;DHT22;23621;50.878;4.584;2023-11-22T07:51:00;13.60;68.90
37782;DHT22;23621;50.878;4.584;2023-11-22T07:53:47;13.60;68.90
37782;DHT22;23621;50.878;4.584;2023-11-22T07:56:36;13.60;69.00
37782;DHT22;23621;50.878;4.584;2023-11-22T07:59:24;13.60;68.90
37782;DHT22;23621;50.878;4.584;2023-11-22T08:02:11;13.60;68.80
37782;DHT22;23621;50.878;4.584;2023-11-22T08:04:59;13.60;68.80
37782;DHT22;23621;50.878;4.584;2023-11-22T08:07:48;13.60;68.80
37782;DHT22;23621;50.878;4.584;2023-11-22T08:10:37;13.60;68.90
37782;DHT22;23621;50.878;4.584;2023-11-22T08:13:24;13.70;69.00
37782;DHT22;23621;50.878;4.584;2023-11-22T08:16:12;13.70;69.00
37782;DHT22;23621;50.878;4.584;2023-11-22T08:19:03;13.70;68.90
37782;DHT22;23621;50.878;4.584;2023-11-22T08:21:52;13.70;68.90
37782;DHT22;23621;50.878;4.584;2023-11-22T08:24:41;13.70;68.80
37782;DHT22;23621;50.878;4.584;2023-11-22T08:27:28;13.70;68.80
37782;DHT22;23621;50.878;4.584;2023-11-22T08:30:16;13.80;68.90
37782;DHT22;23621;50.878;4.584;2023-11-22T08:33:05;13.80;68.90
37782;DHT22;23621;50.878;4.584;2023-11-22T08:35:53;13.80;69.60
37782;DHT22;23621;50.878;4.584;2023-11-22T08:38:45;13.80;68.70
37782;DHT22;23621;50.878;4.584;2023-11-22T08:41:33;13.80;68.70
37782;DHT22;23621;50.878;4.584;2023-11-22T08:44:21;13.80;68.70
37782;DHT22;23621;50.878;4.584;2023-11-22T08:47:08;13.90;68.70
37782;DHT22;23621;50.878;4.584;2023-11-22T08:49:55;13.90;68.70
37782;DHT22;23621;50.878;4.584;2023-11-22T08:52:43;14.00;68.70
37782;DHT22;23621;50.878;4.584;2023-11-22T08:55:32;14.00;68.60
37782;DHT22;23621;50.878;4.584;2023-11-22T08:58:21;14.00;68.40
37782;DHT22;23621;50.878;4.584;2023-11-22T09:01:09;14.10;68.40
37782;DHT22;23621;50.878;4.584;2023-11-22T09:03:57;14.10;68.40
37782;DHT22;23621;50.878;4.584;2023-11-22T09:06:45;14.00;68.40
37782;DHT22;23621;50.878;4.584;2023-11-22T09:09:34;14.10;68.70
37782;DHT22;23621;50.878;4.584;2023-11-22T09:12:23;14.10;68.80
37782;DHT22;23621;50.878;4.584;2023-11-22T09:15:12;14.10;68.70
37782;DHT22;23621;50.878;4.584;2023-11-22T09:18:02;14.10;68.80
37782;DHT22;23621;50.878;4.584;2023-11-22T09:20:50;14.10;68.70
37782;DHT22;23621;50.878;4.584;2023-11-22T09:23:37;14.20;68.80
37782;DHT22;23621;50.878;4.584;2023-11-22T09:26:26;14.20;68.70
37782;DHT22;23621;50.878;4.584;2023-11-22T09:29:13;14.20;68.60
37782;DHT22;23621;50.878;4.584;2023-11-22T09:32:01;14.20;68.50
37782;DHT22;23621;50.878;4.584;2023-11-22T09:34:48;14.20;68.40
37782;DHT22;23621;50.878;4.584;2023-11-22T09:37:38;14.30;68.50
37782;DHT22;23621;50.878;4.584;2023-11-22T09:40:26;14.30;68.50
37782;DHT22;23621;50.878;4.584;2023-11-22T09:43:19;14.40;68.50
37782;DHT22;23621;50.878;4.584;2023-11-22T09:46:08;14.40;68.30
37782;DHT22;23621;50.878;4.584;2023-11-22T09:49:01;14.40;68.20
37782;DHT22;23621;50.878;4.584;2023-11-22T09:51:54;14.40;68.20
37782;DHT22;23621;50.878;4.584;2023-11-22T09:55:35;14.40;68.10
37782;DHT22;23621;50.878;4.584;2023-11-22T09:58:24;14.40;68.20
37782;DHT22;23621;50.878;4.584;2023-11-22T10:01:12;14.40;68.20
37782;DHT22;23621;50.878;4.584;2023-11-22T10:04:03;14.40;68.40
37782;DHT22;23621;50.878;4.584;2023-11-22T10:06:52;14.40;68.50
37782;DHT22;23621;50.878;4.584;2023-11-22T10:09:39;14.50;68.60
37782;DHT22;23621;50.878;4.584;2023-11-22T10:12:29;14.50;68.60
37782;DHT22;23621;50.878;4.584;2023-11-22T10:15:17;14.50;68.50
37782;DHT22;23621;50.878;4.584;2023-11-22T10:18:06;14.50;68.60
37782;DHT22;23621;50.878;4.584;2023-11-22T10:20:54;14.50;68.50
37782;DHT22;23621;50.878;4.584;2023-11-22T10:23:41;14.60;68.40
37782;DHT22;23621;50.878;4.584;2023-11-22T10:26:29;14.60;68.40
37782;DHT22;23621;50.878;4.584;2023-11-22T10:29:17;14.60;68.30
37782;DHT22;23621;50.878;4.584;2023-11-22T10:32:06;14.60;68.40
37782;DHT22;23621;50.878;4.584;2023-11-22T10:34:55;14.60;68.60
37782;DHT22;23621;50.878;4.584;2023-11-22T10:37:42;14.60;68.70
37782;DHT22;23621;50.878;4.584;2023-11-22T10:40:31;14.60;68.80
37782;DHT22;23621;50.878;4.584;2023-11-22T10:43:19;14.60;68.50
37782;DHT22;23621;50.878;4.584;2023-11-22T10:46:12;14.60;68.50
37782;DHT22;23621;50.878;4.584;2023-11-22T10:49:01;14.70;69.40
37782;DHT22;23621;50.878;4.584;2023-11-22T10:51:52;14.70;68.50
37782;DHT22;23621;50.878;4.584;2023-11-22T10:54:47;14.80;68.20
37782;DHT22;23621;50.878;4.584;2023-11-22T10:57:40;14.80;67.90
37782;DHT22;23621;50.878;4.584;2023-11-22T11:00:32;14.80;67.80
37782;DHT22;23621;50.878;4.584;2023-11-22T11:03:20;14.80;67.70
37782;DHT22;23621;50.878;4.584;2023-11-22T11:06:11;14.70;67.50
37782;DHT22;23621;50.878;4.584;2023-11-22T11:09:01;14.70;67.60
37782;DHT22;23621;50.878;4.584;2023-11-22T11:11:52;14.70;67.80
37782;DHT22;23621;50.878;4.584;2023-11-22T11:14:39;14.60;67.80
37782;DHT22;23621;50.878;4.584;2023-11-22T11:17:27;14.70;68.00
37782;DHT22;23621;50.878;4.584;2023-11-22T11:20:16;14.70;67.80
37782;DHT22;23621;50.878;4.584;2023-11-22T11:23:05;14.70;68.00
37782;DHT22;23621;50.878;4.584;2023-11-22T11:26:13;14.80;68.20
37782;DHT22;23621;50.878;4.584;2023-11-22T11:29:03;14.90;68.20
37782;DHT22;23621;50.878;4.584;2023-11-22T11:31:51;14.90;67.80
37782;DHT22;23621;50.878;4.584;2023-11-22T11:34:47;14.90;67.60
37782;DHT22;23621;50.878;4.584;2023-11-22T11:37:37;14.90;67.40
37782;DHT22;23621;50.878;4.584;2023-11-22T11:40:26;14.90;67.50
37782;DHT22;23621;50.878;4.584;2023-11-22T11:43:14;14.90;67.60
37782;DHT22;23621;50.878;4.584;2023-11-22T11:46:01;14.90;67.50
37782;DHT22;23621;50.878;4.584;2023-11-22T11:48:50;15.00;67.70
37782;DHT22;23621;50.878;4.584;2023-11-22T11:51:37;14.90;67.70
37782;DHT22;23621;50.878;4.584;2023-11-22T11:54:25;14.90;67.70
37782;DHT22;23621;50.878;4.584;2023-11-22T11:57:12;15.00;67.90
37782;DHT22;23621;50.878;4.584;2023-11-22T12:00:00;15.10;68.20
37782;DHT22;23621;50.878;4.584;2023-11-22T12:02:48;15.10;68.10
37782;DHT22;23621;50.878;4.584;2023-11-22T12:05:37;15.20;68.10
37782;DHT22;23621;50.878;4.584;2023-11-22T12:08:25;15.20;68.00
37782;DHT22;23621;50.878;4.584;2023-11-22T12:11:16;15.20;67.90
37782;DHT22;23621;50.878;4.584;2023-11-22T12:14:05;15.20;67.70
37782;DHT22;23621;50.878;4.584;2023-11-22T12:16:52;15.20;67.50
37782;DHT22;23621;50.878;4.584;2023-11-22T12:19:41;15.20;67.40
37782;DHT22;23621;50.878;4.584;2023-11-22T12:22:28;15.30;67.50
37782;DHT22;23621;50.878;4.584;2023-11-22T12:25:19;15.30;67.20
37782;DHT22;23621;50.878;4.584;2023-11-22T12:28:09;15.30;67.10
37782;DHT22;23621;50.878;4.584;2023-11-22T12:31:09;15.30;67.00
37782;DHT22;23621;50.878;4.584;2023-11-22T12:33:57;15.30;66.50
37782;DHT22;23621;50.878;4.584;2023-11-22T12:36:46;15.30;67.00
37782;DHT22;23621;50.878;4.584;2023-11-22T12:39:37;15.30;67.00
37782;DHT22;23621;50.878;4.584;2023-11-22T12:42:24;15.30;67.10
37782;DHT22;23621;50.878;4.584;2023-11-22T12:45:22;15.20;66.70
37782;DHT22;23621;50.878;4.584;2023-11-22T12:48:24;15.20;66.70
37782;DHT22;23621;50.878;4.584;2023-11-22T12:51:16;15.20;67.00
37782;DHT22;23621;50.878;4.584;2023-11-22T12:54:04;15.30;67.20
37782;DHT22;23621;50.878;4.584;2023-11-22T12:56:52;15.30;67.00
37782;DHT22;23621;50.878;4.584;2023-11-22T12:59:47;15.30;67.10
37782;DHT22;23621;50.878;4.584;2023-11-22T13:02:35;15.30;67.20
37782;DHT22;23621;50.878;4.584;2023-11-22T13:05:32;15.20;67.10
37782;DHT22;23621;50.878;4.584;2023-11-22T13:08:20;15.20;67.20
37782;DHT22;23621;50.878;4.584;2023-11-22T13:11:09;15.20;67.50
37782;DHT22;23621;50.878;4.584;2023-11-22T13:13:56;15.20;67.50
37782;DHT22;23621;50.878;4.584;2023-11-22T13:16:43;15.10;67.50
37782;DHT22;23621;50.878;4.584;2023-11-22T13:19:32;15.10;67.60
37782;DHT22;23621;50.878;4.584;2023-11-22T13:22:19;15.10;67.60
37782;DHT22;23621;50.878;4.584;2023-11-22T13:25:09;15.10;67.70
37782;DHT22;23621;50.878;4.584;2023-11-22T13:27:57;15.00;67.80
37782;DHT22;23621;50.878;4.584;2023-11-22T13:30:46;15.00;67.90
37782;DHT22;23621;50.878;4.584;2023-11-22T13:33:36;15.00;67.40
37782;DHT22;23621;50.878;4.584;2023-11-22T13:36:25;15.00;67.60
37782;DHT22;23621;50.878;4.584;2023-11-22T13:39:12;15.10;67.90
37782;DHT22;23621;50.878;4.584;2023-11-22T13:42:02;15.20;68.10
37782;DHT22;23621;50.878;4.584;2023-11-22T13:44:49;15.20;67.80
37782;DHT22;23621;50.878;4.584;2023-11-22T13:47:37;15.20;67.50
37782;DHT22;23621;50.878;4.584;2023-11-22T13:50:24;15.20;67.30
37782;DHT22;23621;50.878;4.584;2023-11-22T13:53:13;15.20;67.40
37782;DHT22;23621;50.878;4.584;2023-11-22T13:56:01;15.20;67.30
37782;DHT22;23621;50.878;4.584;2023-11-22T13:58:48;15.20;67.00
37782;DHT22;23621;50.878;4.584;2023-11-22T14:01:36;15.20;67.00
37782;DHT22;23621;50.878;4.584;2023-11-22T14:04:23;15.20;67.00
37782;DHT22;23621;50.878;4.584;2023-11-22T14:07:10;15.30;67.00
37782;DHT22;23621;50.878;4.584;2023-11-22T14:09:58;15.30;67.10
37782;DHT22;23621;50.878;4.584;2023-11-22T14:12:45;15.30;67.60
37782;DHT22;23621;50.878;4.584;2023-11-22T14:15:35;15.30;67.50
37782;DHT22;23621;50.878;4.584;2023-11-22T14:18:22;15.30;67.40
37782;DHT22;23621;50.878;4.584;2023-11-22T14:21:10;15.40;67.30
37782;DHT22;23621;50.878;4.584;2023-11-22T14:23:57;15.40;66.90
37782;DHT22;23621;50.878;4.584;2023-11-22T14:26:44;15.40;66.90
37782;DHT22;23621;50.878;4.584;2023-11-22T14:29:36;15.40;66.50
37782;DHT22;23621;50.878;4.584;2023-11-22T14:32:24;15.30;66.40
37782;DHT22;23621;50.878;4.584;2023-11-22T14:35:11;15.40;66.40
37782;DHT22;23621;50.878;4.584;2023-11-22T14:37:59;15.40;66.60
37782;DHT22;23621;50.878;4.584;2023-11-22T14:40:47;15.40;66.40
37782;DHT22;23621;50.878;4.584;2023-11-22T14:43:35;15.40;66.20
37782;DHT22;23621;50.878;4.584;2023-11-22T14:46:22;15.30;66.10
37782;DHT22;23621;50.878;4.584;2023-11-22T14:49:09;15.40;66.40
37782;DHT22;23621;50.878;4.584;2023-11-22T14:51:56;15.40;66.50
37782;DHT22;23621;50.878;4.584;2023-11-22T14:54:44;15.30;66.50
37782;DHT22;23621;50.878;4.584;2023-11-22T14:57:32;15.30;66.50
37782;DHT22;23621;50.878;4.584;2023-11-22T15:00:19;15.30;66.60
37782;DHT22;23621;50.878;4.584;2023-11-22T15:03:07;15.20;66.60
37782;DHT22;23621;50.878;4.584;2023-11-22T15:05:55;15.20;66.50
37782;DHT22;23621;50.878;4.584;2023-11-22T15:08:44;15.20;66.60
37782;DHT22;23621;50.878;4.584;2023-11-22T15:11:31;15.20;66.50
37782;DHT22;23621;50.878;4.584;2023-11-22T15:14:19;15.20;66.60
37782;DHT22;23621;50.878;4.584;2023-11-22T15:17:06;15.20;66.70
37782;DHT22;23621;50.878;4.584;2023-11-22T15:19:54;15.30;67.20
37782;DHT22;23621;50.878;4.584;2023-11-22T15:22:41;15.30;67.20
37782;DHT22;23621;50.878;4.584;2023-11-22T15:25:29;15.30;67.00
37782;DHT22;23621;50.878;4.584;2023-11-22T15:28:16;15.30;67.20
37782;DHT22;23621;50.878;4.584;2023-11-22T15:31:09;15.30;67.20
37782;DHT22;23621;50.878;4.584;2023-11-22T15:33:57;15.30;67.20
37782;DHT22;23621;50.878;4.584;2023-11-22T15:36:44;15.30;67.30
37782;DHT22;23621;50.878;4.584;2023-11-22T15:39:32;15.30;67.50
37782;DHT22;23621;50.878;4.584;2023-11-22T15:42:19;15.30;67.80
37782;DHT22;23621;50.878;4.584;2023-11-22T15:45:08;15.30;67.60
37782;DHT22;23621;50.878;4.584;2023-11-22T15:47:55;15.30;67.70
37782;DHT22;23621;50.878;4.584;2023-11-22T15:50:42;15.30;67.70
37782;DHT22;23621;50.878;4.584;2023-11-22T15:53:30;15.30;67.50
37782;DHT22;23621;50.878;4.584;2023-11-22T15:56:18;15.30;67.50
37782;DHT22;23621;50.878;4.584;2023-11-22T15:59:05;15.30;67.50
37782;DHT22;23621;50.878;4.584;2023-11-22T16:01:52;15.30;67.60
37782;DHT22;23621;50.878;4.584;2023-11-22T16:04:40;15.20;67.60
37782;DHT22;23621;50.878;4.584;2023-11-22T16:07:27;15.30;67.70
37782;DHT22;23621;50.878;4.584;2023-11-22T16:10:15;15.20;67.50
37782;DHT22;23621;50.878;4.584;2023-11-22T16:13:04;15.20;67.50
37782;DHT22;23621;50.878;4.584;2023-11-22T16:15:51;15.20;67.40
37782;DHT22;23621;50.878;4.584;2023-11-22T16:18:38;15.20;67.30
37782;DHT22;23621;50.878;4.584;2023-11-22T16:21:26;15.20;67.20
37782;DHT22;23621;50.878;4.584;2023-11-22T16:24:13;15.10;66.90
37782;DHT22;23621;50.878;4.584;2023-11-22T16:27:01;15.10;67.00
37782;DHT22;23621;50.878;4.584;2023-11-22T16:29:49;15.10;67.10
37782;DHT22;23621;50.878;4.584;2023-11-22T16:32:37;15.10;67.10
37782;DHT22;23621;50.878;4.584;2023-11-22T16:35:25;15.10;67.10
37782;DHT22;23621;50.878;4.584;2023-11-22T16:38:13;15.00;67.10
37782;DHT22;23621;50.878;4.584;2023-11-22T16:41:00;15.00;67.00
37782;DHT22;23621;50.878;4.584;2023-11-22T16:43:47;15.00;67.00
37782;DHT22;23621;50.878;4.584;2023-11-22T16:46:35;15.00;67.10
37782;DHT22;23621;50.878;4.584;2023-11-22T16:49:23;15.00;67.40
37782;DHT22;23621;50.878;4.584;2023-11-22T16:52:10;15.00;67.90
37782;DHT22;23621;50.878;4.584;2023-11-22T16:54:59;15.00;67.50
37782;DHT22;23621;50.878;4.584;2023-11-22T16:57:46;15.00;67.60
37782;DHT22;23621;50.878;4.584;2023-11-22T17:00:33;15.10;67.70
37782;DHT22;23621;50.878;4.584;2023-11-22T17:03:20;15.00;67.60
37782;DHT22;23621;50.878;4.584;2023-11-22T17:06:11;15.00;67.60
37782;DHT22;23621;50.878;4.584;2023-11-22T17:08:58;15.00;67.40
37782;DHT22;23621;50.878;4.584;2023-11-22T17:11:45;15.00;67.60
37782;DHT22;23621;50.878;4.584;2023-11-22T17:14:32;15.00;67.50
37782;DHT22;23621;50.878;4.584;2023-11-22T17:17:20;14.90;67.30
37782;DHT22;23621;50.878;4.584;2023-11-22T17:20:09;14.90;67.30
37782;DHT22;23621;50.878;4.584;2023-11-22T17:22:58;15.00;67.40
37782;DHT22;23621;50.878;4.584;2023-11-22T17:25:46;15.00;67.20
37782;DHT22;23621;50.878;4.584;2023-11-22T17:28:33;15.00;67.00
37782;DHT22;23621;50.878;4.584;2023-11-22T17:31:20;14.90;66.90
37782;DHT22;23621;50.878;4.584;2023-11-22T17:34:08;15.00;67.00
37782;DHT22;23621;50.878;4.584;2023-11-22T17:36:55;15.00;67.10
37782;DHT22;23621;50.878;4.584;2023-11-22T17:39:44;15.00;67.20
37782;DHT22;23621;50.878;4.584;2023-11-22T17:42:32;15.00;67.10